Airfield :
LOGIN :

Register | Disclaimer

   EN    FR    IT 

 










Legend :    VFR   Marginal VFR   IFR   Intensive IFR   Very Intensive IFR
Visi :
Ceiling :
>= 8 km
>= 3000ft
5 to 8 km
1000 to 3000 ft
1500m to 5 km
500 to 1000 ft
800 to 1500m
200 to 500 ft
< 800m
< 200 ft
Symbols :   Thunderstorms  Fog  Heavy snow  Heavy precipitations  Wind > 20 kt
SIGMETs :     Misc.  Thunderstorms  Icing  Turbulence  Mountain Waves  Volcanic Ashes







- Airport Elevation : 989 ft
- IATA code : TRN


LIMF - Torino Caselle

CURRENT METAR :
  • 210520Z 01004KT 9999 RA BKN070 18/18 Q1012

EXPIRED METARs :
  • 210450Z VRB01KT 9999 RA SCT020 OVC050 18/18 Q1012
  • 210420Z 33004KT 9999 RA SCT040 OVC070 18/17 Q1012
  • 210350Z 29005KT 260V320 9999 SHRA SCT035 OVC070 18/17 Q1013
  • 210320Z 31006KT 9999 BKN080 19/17 Q1012
  • 210250Z 35005KT 9999 BKN090 19/16 Q1012

TAF TAF LIMF
Valid from the 21 at 06:00 until the 22 at 06:00 UTC


210500Z 2106/2206 VRB05KT 9999 SCT030 SCT060
TEMPO 2106/2109 TSRA
No reported NOTAMs for that airfield.
1 SIGMET reported for the Milano FIR (LIMM) :
 
Embedded thunderstorms
LIMM SIGMET 1 VALID 210210/210610 LIIP
LIMM MILANO FIR EMBD TS OBS WI N4706 E01218 - N4631 E00822 - N4549 E00646 - N4501 E00635 - N4413 E00658 - N4538 E01047 - N4630 E01339 - N4706 E01218 TOP ABV FL400 STNR NC=



MET'MAP, your aeronautical weather chart ! - Copyright ORBIFLY December 2007 - Disclaimer

ORBIFLY MET'MAP TEAM :

Programming & Development : Alexandra Zaïnal
Concept & Development : Baudouin d'Aumeries
Co-Development & Prog : Marc-Olivier Méhu
Technical & hardware support : Manuel Goepfert

Contact : metmap@orbifly.com




SOURCES & CREDITS :

   NOAA